Time;durP1;ratioP1;P1;durP2;ratioP2;P2;SDS_P1;SDS_P2;PMS_P1;PMS_P2;Temp;Humidity;BMP_temperature;BMP_pressure;BME280_temperature;BME280_humidity;BME280_pressure;Samples;Min_cycle;Max_cycle;Signal;HPM_P1;HPM_P2
2021/05/15 00:03:44;;;;;;;32.83;21.17;;;;;9.50;100240.00;;;;10495029;28;20201;-78
2021/05/15 00:08:45;;;;;;;39.73;22.00;;;;;9.50;100223.00;;;;10512708;28;20587;-78
2021/05/15 00:13:46;;;;;;;34.77;20.40;;;;;9.50;100210.00;;;;10480203;28;20575;-79
2021/05/15 00:18:47;;;;;;;29.67;20.30;;;;;9.40;100202.00;;;;10487473;28;20532;-78
2021/05/15 00:23:48;;;;;;;33.30;21.63;;;;;9.40;100200.00;;;;10508886;28;20196;-79
2021/05/15 00:28:49;;;;;;;31.77;20.23;;;;;9.40;100203.00;;;;10495342;28;20199;-79
2021/05/15 00:33:49;;;;;;;34.37;19.33;;;;;9.40;100197.00;;;;10511814;28;20203;-79
2021/05/15 00:38:50;;;;;;;34.87;21.47;;;;;9.30;100208.00;;;;10512017;28;20172;-78
2021/05/15 00:44:11;;;;;;;37.70;20.67;;;;;9.40;100206.00;;;;10527474;28;20203;-79
2021/05/15 00:49:13;;;;;;;31.23;20.07;;;;;9.40;100200.00;;;;10511949;28;20559;-79
2021/05/15 00:54:14;;;;;;;36.77;21.37;;;;;9.40;100188.00;;;;10479234;28;20211;-79
2021/05/15 00:59:15;;;;;;;33.13;19.77;;;;;9.30;100189.00;;;;10511938;28;20192;-78
2021/05/15 01:04:16;;;;;;;25.70;18.17;;;;;9.20;100193.00;;;;10486484;28;20292;-79
2021/05/15 01:09:17;;;;;;;33.87;20.23;;;;;9.20;100197.00;;;;10469827;28;20605;-79
2021/05/15 01:14:18;;;;;;;34.57;20.00;;;;;9.30;100185.00;;;;10470210;28;20173;-78
2021/05/15 01:19:19;;;;;;;34.17;21.03;;;;;9.30;100192.00;;;;10479587;28;20644;-79
2021/05/15 01:24:20;;;;;;;34.90;21.50;;;;;9.30;100190.00;;;;10493771;28;20201;-79
2021/05/15 01:29:21;;;;;;;31.53;20.57;;;;;9.40;100184.00;;;;10479343;28;20230;-78
2021/05/15 01:34:21;;;;;;;31.17;20.43;;;;;9.30;100183.00;;;;10495198;28;20628;-78
2021/05/15 01:39:22;;;;;;;34.20;20.83;;;;;9.30;100191.00;;;;10476811;28;20208;-78
2021/05/15 01:44:23;;;;;;;32.90;19.97;;;;;9.20;100180.00;;;;10493419;28;20350;-78
2021/05/15 01:49:24;;;;;;;35.47;21.60;;;;;9.20;100172.00;;;;10495175;28;20250;-78
2021/05/15 01:54:25;;;;;;;33.60;20.63;;;;;9.20;100172.00;;;;10483391;28;20177;-78
2021/05/15 01:59:26;;;;;;;35.20;21.53;;;;;9.20;100183.00;;;;10506463;28;20244;-78
2021/05/15 02:04:26;;;;;;;39.80;22.33;;;;;9.20;100183.00;;;;10500938;28;20197;-78
2021/05/15 02:09:27;;;;;;;36.87;21.83;;;;;9.20;100174.00;;;;10500498;28;20260;-78
2021/05/15 02:14:28;;;;;;;38.23;23.33;;;;;9.20;100167.00;;;;10517375;28;20176;-79
2021/05/15 02:19:28;;;;;;;38.57;22.63;;;;;9.30;100162.00;;;;10483384;28;20189;-78
2021/05/15 02:24:29;;;;;;;38.87;22.10;;;;;9.30;100151.00;;;;10499150;28;20209;-79
2021/05/15 02:29:30;;;;;;;40.93;22.80;;;;;9.30;100157.00;;;;10482847;28;20215;-79
2021/05/15 02:34:31;;;;;;;37.07;21.50;;;;;9.30;100152.00;;;;10490500;28;20818;-78
2021/05/15 02:39:31;;;;;;;40.50;23.37;;;;;9.30;100149.00;;;;10500543;28;20272;-79
2021/05/15 02:44:32;;;;;;;38.17;23.67;;;;;9.30;100147.00;;;;10497837;28;20208;-78
2021/05/15 02:49:33;;;;;;;42.33;23.23;;;;;9.30;100140.00;;;;10515291;28;20848;-78
2021/05/15 02:54:34;;;;;;;35.93;21.23;;;;;9.30;100141.00;;;;10498204;28;20187;-79
2021/05/15 02:59:36;;;;;;;35.23;22.53;;;;;9.20;100143.00;;;;10454117;28;20303;-79
2021/05/15 03:04:36;;;;;;;36.27;21.60;;;;;9.10;100136.00;;;;10476151;28;20197;-79
2021/05/15 03:09:37;;;;;;;37.27;22.40;;;;;9.10;100129.00;;;;10521793;28;20190;-78
2021/05/15 03:14:39;;;;;;;35.63;22.77;;;;;9.10;100135.00;;;;10469768;28;20181;-79
2021/05/15 03:19:40;;;;;;;38.97;22.73;;;;;9.10;100135.00;;;;10474427;28;20182;-79
2021/05/15 03:24:40;;;;;;;43.47;22.90;;;;;9.10;100129.00;;;;10496496;28;20399;-79
2021/05/15 03:29:42;;;;;;;38.97;23.67;;;;;9.10;100127.00;;;;10496514;28;20233;-79
2021/05/15 03:34:43;;;;;;;40.17;22.90;;;;;9.00;100118.00;;;;10480619;28;20640;-78
2021/05/15 03:39:44;;;;;;;40.20;23.43;;;;;9.00;100128.00;;;;10471910;28;20178;-79
2021/05/15 03:44:45;;;;;;;39.57;23.03;;;;;9.00;100122.00;;;;10495672;28;20270;-78
2021/05/15 03:49:48;;;;;;;41.87;24.50;;;;;9.00;100111.00;;;;10496964;28;20177;-79
2021/05/15 03:54:49;;;;;;;40.77;23.60;;;;;9.10;100107.00;;;;10475418;28;20541;-79
2021/05/15 03:59:49;;;;;;;44.50;23.63;;;;;9.20;100096.00;;;;10495444;28;20176;-79
2021/05/15 04:04:51;;;;;;;45.90;24.57;;;;;9.20;100096.00;;;;10494892;28;20204;-79
2021/05/15 04:09:52;;;;;;;43.70;24.13;;;;;9.30;100091.00;;;;10486584;28;20193;-79
2021/05/15 04:15:04;;;;;;;42.17;23.60;;;;;9.30;100084.00;;;;10515484;28;20212;-79
2021/05/15 04:20:05;;;;;;;42.57;25.00;;;;;9.30;100067.00;;;;10511558;28;20177;-79
2021/05/15 04:25:06;;;;;;;50.87;26.63;;;;;9.30;100063.00;;;;10481112;28;20241;-79
2021/05/15 04:30:07;;;;;;;64.67;30.03;;;;;9.20;100074.00;;;;10468888;28;20224;-79
2021/05/15 04:35:08;;;;;;;55.40;30.13;;;;;9.20;100068.00;;;;10490935;28;20173;-78
2021/05/15 04:40:09;;;;;;;58.40;28.83;;;;;9.30;100063.00;;;;10495025;28;20228;-78
2021/05/15 04:45:12;;;;;;;57.40;29.37;;;;;9.50;100052.00;;;;10510304;28;20208;-79
2021/05/15 04:50:13;;;;;;;51.33;28.70;;;;;9.80;100063.00;;;;10493733;28;20224;-79
2021/05/15 04:55:14;;;;;;;50.33;27.60;;;;;10.10;100069.00;;;;10493189;28;20196;-78
2021/05/15 05:00:15;;;;;;;51.73;27.50;;;;;10.40;100092.00;;;;10509765;28;20180;-78
2021/05/15 05:05:16;;;;;;;47.50;27.20;;;;;10.70;100079.00;;;;10467554;28;20204;-78
2021/05/15 05:10:17;;;;;;;57.83;29.53;;;;;11.40;100087.00;;;;10493493;28;20177;-78
2021/05/15 05:15:18;;;;;;;50.37;28.43;;;;;11.30;100095.00;;;;10493507;28;20201;-78
2021/05/15 05:20:19;;;;;;;60.30;35.93;;;;;11.00;100086.00;;;;10493245;28;20226;-79
2021/05/15 05:25:20;;;;;;;81.13;46.53;;;;;11.00;100091.00;;;;10468048;28;20581;-79
2021/05/15 05:30:21;;;;;;;77.27;44.10;;;;;11.10;100086.00;;;;10511827;28;20229;-78
2021/05/15 05:35:21;;;;;;;76.00;46.63;;;;;11.20;100080.00;;;;10500973;28;20222;-79
2021/05/15 05:40:22;;;;;;;71.27;43.37;;;;;11.40;100084.00;;;;10500873;28;20223;-79
2021/05/15 05:45:23;;;;;;;74.23;44.93;;;;;11.50;100081.00;;;;10512123;28;20319;-78
2021/05/15 05:50:25;;;;;;;64.80;43.63;;;;;11.80;100083.00;;;;10517875;28;20248;-78
2021/05/15 05:55:25;;;;;;;59.67;40.10;;;;;12.00;100076.00;;;;10500522;28;20189;-78
2021/05/15 06:00:26;;;;;;;58.90;40.93;;;;;12.60;100066.00;;;;10500900;28;20644;-79
2021/05/15 06:05:27;;;;;;;48.30;36.67;;;;;13.00;100067.00;;;;10510450;28;20296;-78
2021/05/15 06:10:27;;;;;;;51.50;37.63;;;;;13.10;100074.00;;;;10507970;28;20267;-78
2021/05/15 06:15:28;;;;;;;47.30;33.10;;;;;13.30;100074.00;;;;10496411;28;20187;-78
2021/05/15 06:20:30;;;;;;;43.70;32.30;;;;;13.40;100073.00;;;;10513595;28;20220;-79
2021/05/15 06:25:30;;;;;;;42.60;32.00;;;;;13.40;100074.00;;;;10525502;28;20204;-79
2021/05/15 06:30:31;;;;;;;41.53;31.50;;;;;12.80;100081.00;;;;10541659;28;20180;-78
2021/05/15 06:35:33;;;;;;;41.43;32.93;;;;;12.70;100064.00;;;;10528542;28;20196;-79
2021/05/15 06:40:33;;;;;;;38.60;29.20;;;;;13.10;100065.00;;;;10493990;28;20223;-79
2021/05/15 06:45:34;;;;;;;37.60;28.93;;;;;13.50;100049.00;;;;10482026;28;20237;-78
2021/05/15 06:50:35;;;;;;;31.77;24.80;;;;;14.60;100051.00;;;;10515928;28;20181;-78
2021/05/15 06:55:36;;;;;;;24.57;20.50;;;;;15.40;100047.00;;;;10514140;28;20180;-79
2021/05/15 07:00:36;;;;;;;21.57;18.73;;;;;15.20;100039.00;;;;10511705;28;20173;-78
2021/05/15 07:05:37;;;;;;;20.63;16.40;;;;;15.10;100039.00;;;;10531525;28;20209;-78
2021/05/15 07:10:38;;;;;;;16.77;14.23;;;;;15.60;100037.00;;;;10497618;28;20185;-78
2021/05/15 07:15:39;;;;;;;15.93;13.97;;;;;15.50;100020.00;;;;10531405;28;20184;-79
2021/05/15 07:20:39;;;;;;;18.00;13.27;;;;;15.20;100022.00;;;;10496586;28;20192;-78
2021/05/15 07:25:41;;;;;;;14.13;12.43;;;;;14.30;100026.00;;;;10497928;28;20196;-78
2021/05/15 07:30:41;;;;;;;15.37;12.80;;;;;13.80;100013.00;;;;10514151;28;20185;-78
2021/05/15 07:35:43;;;;;;;12.23;10.20;;;;;13.50;100010.00;;;;10491985;28;20172;-79
2021/05/15 07:40:44;;;;;;;13.07;10.33;;;;;13.70;100017.00;;;;10552097;28;20176;-78
2021/05/15 07:45:44;;;;;;;13.97;10.53;;;;;13.50;100008.00;;;;10506267;28;20234;-79
2021/05/15 07:50:45;;;;;;;14.03;11.00;;;;;13.30;100003.00;;;;10471474;28;20204;-79
2021/05/15 07:55:46;;;;;;;14.53;11.20;;;;;12.80;100001.00;;;;10476659;28;20238;-80
2021/05/15 08:00:47;;;;;;;17.10;13.60;;;;;12.40;100001.00;;;;10507491;28;20176;-78
2021/05/15 08:05:48;;;;;;;17.87;13.10;;;;;12.90;99994.00;;;;10517810;28;20676;-79
2021/05/15 08:10:49;;;;;;;15.20;12.17;;;;;13.60;99991.00;;;;10493480;28;20520;-79
2021/05/15 08:15:50;;;;;;;15.87;12.53;;;;;14.20;99977.00;;;;10493431;28;20230;-79
2021/05/15 08:20:51;;;;;;;12.70;10.60;;;;;15.00;99988.00;;;;10480672;28;20177;-79
2021/05/15 08:25:52;;;;;;;13.00;9.23;;;;;14.90;99985.00;;;;10512340;28;20579;-79
2021/05/15 08:30:53;;;;;;;10.90;8.80;;;;;14.10;99984.00;;;;10533107;28;20184;-79
2021/05/15 08:35:54;;;;;;;10.93;9.40;;;;;14.10;99978.00;;;;10499046;28;20219;-78
2021/05/15 08:40:54;;;;;;;10.70;8.10;;;;;14.00;99978.00;;;;10483996;28;20177;-79
2021/05/15 08:45:57;;;;;;;13.13;9.00;;;;;14.30;99977.00;;;;10516170;28;20216;-79
2021/05/15 08:51:00;;;;;;;8.97;8.10;;;;;15.20;99967.00;;;;10505993;28;20925;-78
2021/05/15 08:56:02;;;;;;;12.47;7.30;;;;;15.50;99970.00;;;;10498848;28;20621;-79
2021/05/15 09:01:05;;;;;;;8.73;6.83;;;;;15.70;99953.00;;;;10483300;28;20173;-77
2021/05/15 09:06:06;;;;;;;12.80;7.63;;;;;16.00;99946.00;;;;10475173;28;20209;-77
2021/05/15 09:11:08;;;;;;;10.83;6.83;;;;;16.10;99935.00;;;;10534410;28;20192;-76
2021/05/15 09:16:10;;;;;;;6.97;5.70;;;;;16.80;99928.00;;;;10497156;28;20524;-78
2021/05/15 09:21:18;;;;;;;7.10;5.13;;;;;17.20;99917.00;;;;10507617;28;20200;-77
2021/05/15 09:26:24;;;;;;;7.67;5.13;;;;;17.80;99906.00;;;;10515170;28;20265;-77
2021/05/15 09:31:42;;;;;;;7.43;4.38;;;;;18.50;99891.00;;;;10506443;28;20200;-77
2021/05/15 09:36:46;;;;;;;7.80;4.00;;;;;18.60;99879.00;;;;10543581;28;20191;-78
2021/05/15 09:41:55;;;;;;;6.60;3.70;;;;;17.90;99867.00;;;;10559984;28;20192;-77
2021/05/15 09:46:57;;;;;;;8.18;3.25;;;;;16.90;99863.00;;;;10498043;28;20607;-78
2021/05/15 09:52:06;;;;;;;3.75;2.80;;;;;16.10;99860.00;;;;10523913;28;20271;-77
2021/05/15 09:57:11;;;;;;;7.07;3.22;;;;;15.70;99861.00;;;;10500657;28;20192;-77
2021/05/15 10:02:18;;;;;;;8.10;3.10;;;;;16.20;99840.00;;;;10504793;28;20200;-77
2021/05/15 10:07:32;;;;;;;4.50;2.70;;;;;17.10;99835.00;;;;10519226;28;20571;-77
2021/05/15 10:12:36;;;;;;;4.82;2.80;;;;;17.30;99830.00;;;;10519748;28;20199;-77
2021/05/15 10:17:38;;;;;;;3.80;1.65;;;;;17.20;99823.00;;;;10523113;28;20279;-78
2021/05/15 10:22:43;;;;;;;3.20;1.88;;;;;16.40;99820.00;;;;10505335;28;20188;-77
2021/05/15 10:27:45;;;;;;;5.43;1.40;;;;;16.00;99817.00;;;;10528540;28;20201;-77
2021/05/15 10:32:58;;;;;;;6.83;2.37;;;;;16.30;99811.00;;;;10495576;28;20189;-77
2021/05/15 10:38:10;;;;;;;3.43;1.70;;;;;16.80;99805.00;;;;10523925;28;20187;-77
2021/05/15 10:43:12;;;;;;;3.87;1.43;;;;;15.90;99799.00;;;;10528078;28;20211;-78
2021/05/15 10:48:25;;;;;;;3.80;1.10;;;;;15.90;99794.00;;;;10525493;28;20212;-77
2021/05/15 10:53:32;;;;;;;5.07;1.23;;;;;16.70;99781.00;;;;10507729;28;20235;-77
2021/05/15 10:59:10;;;;;;;3.97;1.23;;;;;17.20;99770.00;;;;10498399;28;20567;-77
2021/05/15 11:04:24;;;;;;;3.90;1.20;;;;;18.20;99762.00;;;;10517782;28;20197;-78
2021/05/15 11:09:27;;;;;;;3.45;1.15;;;;;17.90;99759.00;;;;10497032;28;20247;-77
2021/05/15 11:14:31;;;;;;;3.30;1.02;;;;;16.50;99760.00;;;;10526569;28;20208;-78
2021/05/15 11:19:35;;;;;;;1.53;0.87;;;;;15.50;99771.00;;;;10511347;28;20217;-77
2021/05/15 11:24:37;;;;;;;2.93;1.37;;;;;15.20;99764.00;;;;10511431;28;20205;-77
2021/05/15 11:29:39;;;;;;;1.60;0.90;;;;;15.50;99759.00;;;;10485030;28;20185;-78
2021/05/15 11:34:42;;;;;;;3.30;1.20;;;;;15.10;99759.00;;;;10489248;28;20228;-77
2021/05/15 11:39:51;;;;;;;3.00;1.13;;;;;15.10;99769.00;;;;10515543;28;20279;-77
2021/05/15 11:44:53;;;;;;;3.03;1.60;;;;;14.40;99761.00;;;;10519954;28;20224;-77
2021/05/15 11:50:06;;;;;;;3.60;1.27;;;;;13.60;99763.00;;;;10487437;28;20188;-77
2021/05/15 11:55:21;;;;;;;2.97;1.20;;;;;13.30;99750.00;;;;10499141;28;20188;-77
2021/05/15 12:00:27;;;;;;;3.67;1.30;;;;;13.90;99741.00;;;;10506474;28;20193;-78
2021/05/15 12:05:29;;;;;;;3.17;1.73;;;;;14.40;99736.00;;;;10506429;28;20221;-78
2021/05/15 12:10:31;;;;;;;3.40;1.70;;;;;14.40;99732.00;;;;10461531;28;20603;-77
2021/05/15 12:15:35;;;;;;;3.00;1.37;;;;;14.50;99737.00;;;;10462011;28;20190;-77
2021/05/15 12:20:42;;;;;;;2.20;1.30;;;;;14.70;99729.00;;;;10531808;28;20189;-77
2021/05/15 12:25:56;;;;;;;2.70;1.50;;;;;14.70;99713.00;;;;10521725;28;20231;-79
2021/05/15 12:31:00;;;;;;;3.93;1.37;;;;;14.00;99712.00;;;;10507056;28;20242;-78
2021/05/15 12:36:08;;;;;;;2.67;1.50;;;;;13.60;99707.00;;;;10520221;28;20390;-78
2021/05/15 12:41:30;;;;;;;4.90;1.63;;;;;13.70;99697.00;;;;10513191;28;20196;-77
2021/05/15 12:46:34;;;;;;;5.73;1.60;;;;;13.50;99694.00;;;;10526043;28;20576;-78
2021/05/15 12:51:41;;;;;;;2.90;1.43;;;;;13.90;99690.00;;;;10493270;28;20193;-78
2021/05/15 12:56:53;;;;;;;2.50;2.27;;;;;13.90;99678.00;;;;10503673;28;20192;-78
2021/05/15 13:02:16;;;;;;;3.53;1.90;;;;;13.70;99675.00;;;;10509090;28;20211;-78
2021/05/15 13:07:25;;;;;;;2.73;1.90;;;;;14.10;99660.00;;;;10526637;28;20270;-77
2021/05/15 13:12:33;;;;;;;3.93;1.90;;;;;15.40;99659.00;;;;10496652;28;20613;-78
2021/05/15 13:17:35;;;;;;;2.73;1.90;;;;;15.70;99648.00;;;;10493192;28;20189;-78
2021/05/15 13:22:38;;;;;;;2.97;1.70;;;;;16.10;99643.00;;;;10524643;28;20193;-77
2021/05/15 13:27:40;;;;;;;2.80;1.67;;;;;16.40;99642.00;;;;10490966;28;20209;-78
2021/05/15 13:32:42;;;;;;;4.50;1.67;;;;;16.10;99628.00;;;;10522962;28;20239;-75
2021/05/15 13:37:44;;;;;;;4.10;2.30;;;;;17.80;99618.00;;;;10505013;28;20234;-75
2021/05/15 13:42:46;;;;;;;2.30;1.70;;;;;17.10;99626.00;;;;10487412;28;20261;-76
2021/05/15 13:47:52;;;;;;;2.90;1.70;;;;;15.70;99621.00;;;;10515441;28;20687;-76
2021/05/15 13:52:53;;;;;;;4.03;1.80;;;;;15.70;99614.00;;;;10512643;28;20894;-76
2021/05/15 13:57:55;;;;;;;2.37;1.83;;;;;15.60;99614.00;;;;10469409;28;20251;-76
2021/05/15 14:02:57;;;;;;;2.53;1.77;;;;;15.80;99607.00;;;;10486320;28;20212;-76
2021/05/15 14:07:59;;;;;;;3.10;2.07;;;;;16.50;99584.00;;;;10502606;28;20275;-76
2021/05/15 14:13:01;;;;;;;3.47;1.93;;;;;18.50;99576.00;;;;10486850;28;20244;-77
2021/05/15 14:18:05;;;;;;;2.35;1.67;;;;;19.20;99574.00;;;;10490139;28;20285;-77
2021/05/15 14:23:08;;;;;;;2.85;1.67;;;;;22.10;99546.00;;;;10491377;28;20197;-77
2021/05/15 14:28:11;;;;;;;3.33;1.50;;;;;24.10;99551.00;;;;10487431;28;20216;-77
2021/05/15 14:33:13;;;;;;;2.80;1.35;;;;;20.10;99531.00;;;;10485913;28;20224;-77
2021/05/15 14:38:15;;;;;;;2.75;1.77;;;;;21.50;99523.00;;;;10501641;28;20198;-77
2021/05/15 14:43:17;;;;;;;2.47;1.80;;;;;22.10;99514.00;;;;10496208;28;20239;-77
2021/05/15 14:48:30;;;;;;;2.42;1.25;;;;;21.50;99513.00;;;;10515834;28;20241;-77
2021/05/15 14:53:34;;;;;;;1.73;1.20;;;;;19.30;99525.00;;;;10471638;28;20190;-77
2021/05/15 14:58:37;;;;;;;1.70;1.60;;;;;18.60;99527.00;;;;10506238;28;20205;-77
2021/05/15 15:03:42;;;;;;;2.17;1.50;;;;;17.60;99535.00;;;;10487870;28;20193;-76
2021/05/15 15:08:44;;;;;;;1.73;1.33;;;;;16.70;99537.00;;;;10505063;28;20280;-77
2021/05/15 15:13:46;;;;;;;3.72;1.00;;;;;15.30;99591.00;;;;10503434;28;20293;-77
2021/05/15 15:18:48;;;;;;;3.50;1.30;;;;;13.30;99600.00;;;;10524703;28;20184;-77
2021/05/15 15:23:50;;;;;;;3.70;1.10;;;;;12.00;99600.00;;;;10526636;28;20203;-77
2021/05/15 15:28:52;;;;;;;2.37;1.37;;;;;11.40;99592.00;;;;10483464;28;20206;-76
2021/05/15 15:33:55;;;;;;;2.63;0.93;;;;;11.40;99582.00;;;;10483120;28;20190;-76
2021/05/15 15:38:57;;;;;;;2.23;1.07;;;;;12.20;99586.00;;;;10485889;28;20713;-76
2021/05/15 15:44:00;;;;;;;4.57;1.40;;;;;16.60;99568.00;;;;10508328;28;20207;-76
2021/05/15 15:49:05;;;;;;;6.00;1.57;;;;;20.50;99564.00;;;;10525402;28;20209;-76
2021/05/15 15:54:06;;;;;;;7.38;1.90;;;;;26.40;99533.00;;;;10467133;28;20202;-76
2021/05/15 15:59:10;;;;;;;4.85;1.88;;;;;25.70;99533.00;;;;10491964;28;20193;-76
2021/05/15 16:04:13;;;;;;;6.38;1.95;;;;;22.00;99526.00;;;;10492566;28;20239;-76
2021/05/15 16:09:14;;;;;;;7.47;2.40;;;;;20.20;99533.00;;;;10523056;28;20614;-76
2021/05/15 16:14:16;;;;;;;9.05;2.80;;;;;18.80;99528.00;;;;10490375;28;20224;-76
2021/05/15 16:19:18;;;;;;;10.32;3.08;;;;;17.60;99543.00;;;;10523096;28;20242;-76
2021/05/15 16:24:20;;;;;;;9.73;2.63;;;;;16.40;99545.00;;;;10522406;28;20815;-76
2021/05/15 16:29:22;;;;;;;10.75;3.35;;;;;15.60;99551.00;;;;10505671;28;20745;-76
2021/05/15 16:34:24;;;;;;;18.40;4.00;;;;;15.20;99547.00;;;;10505727;28;20533;-76
2021/05/15 16:39:26;;;;;;;15.80;3.47;;;;;14.90;99539.00;;;;10523004;28;20177;-76
2021/05/15 16:44:28;;;;;;;18.90;4.40;;;;;14.90;99544.00;;;;10539942;28;20196;-76
2021/05/15 16:49:30;;;;;;;16.67;4.77;;;;;15.10;99534.00;;;;10506601;28;20220;-76
2021/05/15 16:54:32;;;;;;;17.53;4.97;;;;;14.90;99537.00;;;;10522427;28;20645;-76
2021/05/15 16:59:34;;;;;;;20.77;4.83;;;;;14.80;99530.00;;;;10522681;28;20189;-76
2021/05/15 17:04:36;;;;;;;20.27;5.23;;;;;14.60;99529.00;;;;10489520;28;20250;-76
2021/05/15 17:09:38;;;;;;;23.13;5.37;;;;;14.70;99537.00;;;;10522226;28;20259;-76
2021/05/15 17:14:40;;;;;;;20.63;5.27;;;;;14.70;99517.00;;;;10506389;28;20560;-76
2021/05/15 17:19:42;;;;;;;17.23;4.47;;;;;14.70;99518.00;;;;10495467;28;20270;-76
2021/05/15 17:24:44;;;;;;;21.60;4.07;;;;;14.50;99521.00;;;;10499680;28;20232;-76
2021/05/15 17:29:45;;;;;;;20.23;4.03;;;;;14.30;99522.00;;;;10496905;28;20224;-76
2021/05/15 17:34:47;;;;;;;19.47;4.87;;;;;14.30;99524.00;;;;10475854;28;20210;-76
2021/05/15 17:39:49;;;;;;;16.03;4.33;;;;;14.00;99519.00;;;;10514741;28;20207;-76
2021/05/15 17:44:52;;;;;;;16.17;4.17;;;;;14.10;99519.00;;;;10512528;28;20200;-76
2021/05/15 17:49:55;;;;;;;17.27;4.03;;;;;14.30;99524.00;;;;10494551;28;20193;-76
2021/05/15 17:54:57;;;;;;;18.30;3.90;;;;;14.00;99523.00;;;;10484308;28;20201;-77
2021/05/15 17:59:59;;;;;;;17.67;3.20;;;;;14.30;99529.00;;;;10522209;28;20558;-76
2021/05/15 18:05:04;;;;;;;13.10;3.10;;;;;14.20;99524.00;;;;10471588;28;20225;-77
2021/05/15 18:10:07;;;;;;;20.77;5.00;;;;;13.80;99531.00;;;;10488102;28;20197;-77
2021/05/15 18:15:13;;;;;;;21.43;4.27;;;;;13.40;99530.00;;;;10471993;28;20193;-76
2021/05/15 18:20:15;;;;;;;15.10;3.50;;;;;13.10;99535.00;;;;10487586;28;20221;-77
2021/05/15 18:25:16;;;;;;;16.57;3.63;;;;;12.70;99544.00;;;;10486295;28;20217;-77
2021/05/15 18:30:33;;;;;;;16.10;4.10;;;;;12.40;99543.00;;;;10495711;28;20217;-77
2021/05/15 18:35:36;;;;;;;16.70;3.63;;;;;12.20;99553.00;;;;10511733;28;20246;-77
2021/05/15 18:40:39;;;;;;;20.53;4.83;;;;;12.20;99551.00;;;;10531954;28;20200;-77
2021/05/15 18:45:40;;;;;;;13.50;3.17;;;;;12.10;99553.00;;;;10534234;28;20221;-78
2021/05/15 18:50:42;;;;;;;14.70;3.47;;;;;12.00;99552.00;;;;10516691;28;20188;-77
2021/05/15 18:55:44;;;;;;;16.30;3.60;;;;;11.90;99567.00;;;;10516924;28;20330;-78
2021/05/15 19:00:48;;;;;;;18.90;4.97;;;;;11.80;99571.00;;;;10480219;28;20553;-78
2021/05/15 19:05:50;;;;;;;12.80;2.97;;;;;11.80;99570.00;;;;10474657;28;20754;-78
2021/05/15 19:10:52;;;;;;;14.37;2.73;;;;;11.80;99578.00;;;;10493298;28;20205;-78
2021/05/15 19:15:55;;;;;;;13.00;3.00;;;;;11.80;99580.00;;;;10476559;28;20198;-79
2021/05/15 19:20:57;;;;;;;18.83;3.80;;;;;11.70;99577.00;;;;10476337;28;20194;-79
2021/05/15 19:25:59;;;;;;;13.10;3.63;;;;;11.70;99594.00;;;;10458367;28;20267;-79
2021/05/15 19:31:01;;;;;;;13.67;3.07;;;;;11.60;99593.00;;;;10492660;28;20202;-79
2021/05/15 19:36:07;;;;;;;16.80;3.40;;;;;11.60;99599.00;;;;10458898;28;20240;-79
2021/05/15 19:41:11;;;;;;;16.30;3.30;;;;;11.60;99608.00;;;;10489970;28;20545;-78
2021/05/15 19:46:13;;;;;;;12.53;3.90;;;;;11.60;99605.00;;;;10472970;28;20218;-78
2021/05/15 19:51:17;;;;;;;12.87;4.03;;;;;11.60;99614.00;;;;10472824;28;20209;-78
2021/05/15 19:56:33;;;;;;;16.87;3.30;;;;;11.60;99621.00;;;;10481049;28;20231;-78
2021/05/15 20:01:37;;;;;;;17.03;3.60;;;;;11.50;99624.00;;;;10522368;28;20207;-78
2021/05/15 20:06:39;;;;;;;16.43;3.90;;;;;11.30;99625.00;;;;10530459;28;20235;-78
2021/05/15 20:11:42;;;;;;;15.70;2.70;;;;;11.10;99634.00;;;;10497147;28;20201;-78
2021/05/15 20:16:44;;;;;;;18.10;3.40;;;;;11.00;99638.00;;;;10513907;28;20252;-78
2021/05/15 20:21:46;;;;;;;13.73;2.67;;;;;10.80;99631.00;;;;10530317;28;20201;-78
2021/05/15 20:26:48;;;;;;;16.43;3.43;;;;;10.70;99637.00;;;;10513992;28;20238;-78
2021/05/15 20:31:50;;;;;;;19.83;3.63;;;;;10.60;99634.00;;;;10513859;28;20215;-78
2021/05/15 20:36:52;;;;;;;13.03;2.80;;;;;10.60;99630.00;;;;10529902;28;20238;-78
2021/05/15 20:41:54;;;;;;;9.23;2.63;;;;;10.50;99625.00;;;;10513177;28;20219;-78
2021/05/15 20:46:56;;;;;;;11.47;3.13;;;;;10.40;99625.00;;;;10496394;28;20760;-78
2021/05/15 20:51:59;;;;;;;9.97;2.73;;;;;10.20;99628.00;;;;10529209;28;20640;-78
2021/05/15 20:57:01;;;;;;;15.97;3.30;;;;;10.20;99639.00;;;;10513108;28;20200;-78
2021/05/15 21:02:03;;;;;;;11.97;2.77;;;;;10.20;99644.00;;;;10514273;28;20192;-78
2021/05/15 21:07:05;;;;;;;16.77;4.67;;;;;10.20;99637.00;;;;10480802;28;20234;-78
2021/05/15 21:12:07;;;;;;;16.03;3.97;;;;;10.20;99636.00;;;;10529984;28;20230;-78
2021/05/15 21:17:09;;;;;;;20.73;3.20;;;;;10.10;99638.00;;;;10512906;28;20189;-78
2021/05/15 21:22:11;;;;;;;14.97;2.97;;;;;10.10;99636.00;;;;10513749;28;20189;-79
2021/05/15 21:27:16;;;;;;;17.40;3.67;;;;;10.20;99643.00;;;;10529506;28;20219;-78
2021/05/15 21:32:18;;;;;;;16.27;3.97;;;;;10.10;99642.00;;;;10496779;28;20196;-78
2021/05/15 21:37:20;;;;;;;22.53;4.20;;;;;10.00;99647.00;;;;10496619;28;20193;-78
2021/05/15 21:42:22;;;;;;;17.17;3.23;;;;;10.00;99646.00;;;;10547895;28;20197;-78
2021/05/15 21:47:23;;;;;;;18.23;3.50;;;;;10.00;99656.00;;;;10529815;28;20205;-78
2021/05/15 21:52:25;;;;;;;16.20;3.90;;;;;9.90;99652.00;;;;10496454;28;20189;-78
2021/05/15 21:57:27;;;;;;;18.13;3.53;;;;;9.90;99652.00;;;;10487509;28;20738;-78
2021/05/15 22:02:29;;;;;;;20.30;3.97;;;;;9.90;99662.00;;;;10469442;28;20204;-78
2021/05/15 22:07:31;;;;;;;14.40;3.67;;;;;9.90;99660.00;;;;10471793;28;20221;-78
2021/05/15 22:12:33;;;;;;;20.43;3.60;;;;;9.90;99661.00;;;;10478070;28;20185;-78
2021/05/15 22:17:34;;;;;;;17.93;3.80;;;;;9.90;99668.00;;;;10511572;28;20193;-78
2021/05/15 22:22:36;;;;;;;22.80;4.53;;;;;9.90;99664.00;;;;10477950;28;20232;-78
2021/05/15 22:27:40;;;;;;;18.90;4.83;;;;;9.80;99671.00;;;;10526207;28;20216;-78
2021/05/15 22:32:43;;;;;;;24.83;5.67;;;;;9.80;99670.00;;;;10536203;28;20192;-78
2021/05/15 22:37:45;;;;;;;27.30;4.33;;;;;9.70;99669.00;;;;10518318;28;20714;-79
2021/05/15 22:42:52;;;;;;;24.47;4.50;;;;;9.70;99678.00;;;;10514696;28;20208;-78
2021/05/15 22:47:54;;;;;;;22.93;4.77;;;;;9.70;99675.00;;;;10513193;28;20212;-78
2021/05/15 22:52:56;;;;;;;19.53;4.43;;;;;9.70;99674.00;;;;10518214;28;20196;-78
2021/05/15 22:57:59;;;;;;;25.13;4.93;;;;;9.70;99670.00;;;;10534713;28;20206;-78
2021/05/15 23:03:01;;;;;;;20.63;5.37;;;;;9.70;99667.00;;;;10544110;28;20185;-78
2021/05/15 23:08:03;;;;;;;20.40;4.30;;;;;9.60;99666.00;;;;10533966;28;20920;-78
2021/05/15 23:13:05;;;;;;;16.57;4.77;;;;;9.50;99666.00;;;;10550410;28;20786;-79
2021/05/15 23:18:07;;;;;;;16.97;5.37;;;;;9.50;99670.00;;;;10550999;28;20254;-78
2021/05/15 23:23:09;;;;;;;19.87;5.60;;;;;9.50;99668.00;;;;10533789;28;20185;-79
2021/05/15 23:28:16;;;;;;;24.93;5.90;;;;;9.40;99665.00;;;;10533236;28;20282;-78
2021/05/15 23:33:18;;;;;;;27.27;5.80;;;;;9.40;99659.00;;;;10468385;28;20201;-78
2021/05/15 23:38:20;;;;;;;25.67;5.23;;;;;9.40;99665.00;;;;10492398;28;20790;-78
2021/05/15 23:43:22;;;;;;;28.43;5.00;;;;;9.30;99659.00;;;;10457628;28;20735;-78
2021/05/15 23:48:24;;;;;;;19.50;5.00;;;;;9.30;99668.00;;;;10491586;28;20213;-79
2021/05/15 23:53:26;;;;;;;21.47;5.07;;;;;9.30;99669.00;;;;10474237;28;20228;-78
2021/05/15 23:58:29;;;;;;;21.87;5.70;;;;;9.20;99672.00;;;;10533544;28;20185;-78
